In Rescue
 
Open Full Screen Window  High Contrast Mode
Wind Gusting 00 knots
03
July 13, 2020 10:15 PM EDT
Weather Information
Wind Direction
  010 °
Wind Speed
  03 kt (3 mph)
Wind Gust
  00 kt (0 mph)
Altimeter
29.99 in
Visibility
10 SM
Temperature
25° C
77° F
Dewpoint
17° C
63° F
Humidity
61%
1hr Rain Fall
00.00 in.
24hr Rain Fall
00.00 in.
Sky Condition
Broken @ 7,000 ft
Scattered @ 5,000 ft
VFR

METAR KI69 140215Z AUTO 01003KT 10SM SCT050 BKN070 25/17 A2999 RMK AO2 T02470167

FAA Disclaimer: The data displayed is for advisory purposes only and is not to be used for flight planning or operations.